Time;durP1;ratioP1;P1;durP2;ratioP2;P2;SDS_P1;SDS_P2;PMS_P1;PMS_P2;Temp;Humidity;BMP_temperature;BMP_pressure;BME280_temperature;BME280_humidity;BME280_pressure;Samples;Min_cycle;Max_cycle;Signal;HPM_P1;HPM_P2
2021/10/21 00:02:18;;;;;;;3.60;2.70;;;17.90;99.90;;;;;;5023867;28;20457;-89
2021/10/21 00:04:51;;;;;;;4.43;2.50;;;18.00;99.90;;;;;;5031789;28;20509;-87
2021/10/21 00:07:41;;;;;;;2.33;2.10;;;18.20;99.90;;;;;;5024675;28;20572;-88
2021/10/21 00:10:26;;;;;;;3.23;2.00;;;18.30;99.90;;;;;;5026960;28;20753;-87
2021/10/21 00:12:53;;;;;;;2.57;1.90;;;18.40;99.90;;;;;;5024427;28;20457;-87
2021/10/21 00:15:26;;;;;;;2.23;2.03;;;18.40;99.90;;;;;;5027936;28;20469;-87
2021/10/21 00:17:56;;;;;;;3.03;2.10;;;18.50;99.80;;;;;;5022107;28;20484;-88
2021/10/21 00:20:31;;;;;;;4.37;2.50;;;18.40;99.80;;;;;;5006559;28;20558;-88
2021/10/21 00:23:03;;;;;;;2.43;2.10;;;18.50;99.80;;;;;;5024437;28;20475;-89
2021/10/21 00:25:33;;;;;;;2.00;1.87;;;18.50;99.90;;;;;;5036715;28;20474;-87
2021/10/21 00:28:03;;;;;;;3.40;2.30;;;18.60;99.90;;;;;;5026921;28;20482;-88
2021/10/21 00:30:38;;;;;;;5.30;2.33;;;18.50;99.90;;;;;;5024041;28;22941;-89
2021/10/21 00:33:08;;;;;;;2.90;2.00;;;18.50;99.90;;;;;;5024613;28;20446;-89
2021/10/21 00:35:37;;;;;;;4.57;2.40;;;18.40;99.90;;;;;;5028669;28;20470;-89
2021/10/21 00:38:36;;;;;;;;;;;;;;;;;;;;;
2021/10/21 00:41:09;;;;;;;5.10;2.60;;;18.20;99.90;;;;;;5008239;28;21005;-90
2021/10/21 00:43:43;;;;;;;3.40;2.20;;;18.10;99.90;;;;;;5012825;28;20490;-90
2021/10/21 00:46:28;;;;;;;;;;;;;;;;;;;;;
2021/10/21 00:52:52;;;;;;;5.07;2.30;;;17.70;99.90;;;;;;5003931;28;20437;-89
2021/10/21 00:55:27;;;;;;;4.13;2.63;;;17.50;99.90;;;;;;5011940;28;20243;-86
2021/10/21 00:58:19;;;;;;;2.83;2.30;;;17.60;99.90;;;;;;5012680;28;20502;-87
2021/10/21 01:00:54;;;;;;;2.43;2.23;;;17.50;99.90;;;;;;5011126;28;20453;-86
2021/10/21 01:03:21;;;;;;;2.83;1.90;;;17.30;99.90;;;;;;5025668;28;20459;-86
2021/10/21 01:05:55;;;;;;;2.40;2.20;;;17.20;99.90;;;;;;5010609;28;20450;-87
2021/10/21 01:08:25;;;;;;;2.03;1.83;;;17.20;99.90;;;;;;5012109;28;20481;-87
2021/10/21 01:10:55;;;;;;;2.87;1.67;;;17.30;99.90;;;;;;5020642;28;20478;-87
2021/10/21 01:16:16;;;;;;;1.50;1.20;;;17.30;99.90;;;;;;4978522;23;20246;-86
2021/10/21 01:18:45;;;;;;;2.57;1.20;;;17.30;99.90;;;;;;4972522;28;20527;-88
2021/10/21 01:21:18;;;;;;;3.55;1.05;;;17.30;99.90;;;;;;4973916;28;20432;-88
2021/10/21 01:23:49;;;;;;;2.07;0.90;;;17.20;99.90;;;;;;4972124;28;20235;-89
2021/10/21 01:26:19;;;;;;;1.30;1.13;;;17.10;99.90;;;;;;4969267;28;20486;-86
2021/10/21 01:32:44;;;;;;;5.70;1.20;;;17.20;99.90;;;;;;4943439;28;20447;-87
2021/10/21 01:35:42;;;;;;;3.95;1.00;;;17.10;99.20;;;;;;4974870;28;20470;-89
2021/10/21 01:38:11;;;;;;;3.23;1.03;;;17.00;97.80;;;;;;4974510;28;20209;-91
2021/10/21 01:40:41;;;;;;;5.17;1.10;;;17.00;96.60;;;;;;4974298;28;20449;-88
2021/10/21 01:43:13;;;;;;;5.33;2.03;;;16.90;95.20;;;;;;4975978;28;20539;-87
2021/10/21 01:45:47;;;;;;;3.93;0.80;;;16.70;95.60;;;;;;4970101;28;20479;-87
2021/10/21 01:48:17;;;;;;;1.80;1.00;;;16.80;94.50;;;;;;4973161;28;20578;-89
2021/10/21 01:50:48;;;;;;;2.85;1.00;;;16.60;94.70;;;;;;4969506;28;20466;-91
2021/10/21 01:53:20;;;;;;;9.40;3.40;;;16.50;94.60;;;;;;4972928;28;20201;-88
2021/10/21 01:55:50;;;;;;;4.07;1.13;;;16.60;93.60;;;;;;4974048;28;20486;-88
2021/10/21 01:58:22;;;;;;;2.23;1.10;;;16.40;94.10;;;;;;4973321;28;20543;-89
2021/10/21 02:00:52;;;;;;;2.50;1.37;;;16.40;94.20;;;;;;4972465;28;20828;-87
2021/10/21 02:03:28;;;;;;;2.10;0.90;;;16.30;94.20;;;;;;4980511;28;20460;-88
2021/10/21 02:05:56;;;;;;;3.13;0.80;;;16.10;94.00;;;;;;4969914;28;20469;-89
2021/10/21 02:09:47;;;;;;;3.88;1.20;;;16.30;93.80;;;;;;4983516;28;20483;-89
2021/10/21 02:12:15;;;;;;;3.00;1.10;;;16.30;93.40;;;;;;4965357;28;20205;-88
2021/10/21 02:14:47;;;;;;;1.60;0.80;;;16.10;93.00;;;;;;4986363;28;20538;-87
2021/10/21 02:17:17;;;;;;;4.10;0.80;;;15.90;92.80;;;;;;4987975;28;20213;-86
2021/10/21 02:19:48;;;;;;;4.67;0.80;;;15.80;93.00;;;;;;4981783;28;20754;-89
2021/10/21 02:22:21;;;;;;;3.77;0.70;;;15.90;92.90;;;;;;4981329;28;20469;-90
2021/10/21 02:24:54;;;;;;;2.17;0.70;;;15.90;92.60;;;;;;4980715;28;20490;-91
2021/10/21 02:27:52;;;;;;;1.60;0.70;;;15.80;92.70;;;;;;4980059;28;20483;-88
2021/10/21 02:30:46;;;;;;;1.73;0.80;;;15.80;92.60;;;;;;4964322;28;20447;-89
2021/10/21 02:33:25;;;;;;;1.90;0.80;;;15.90;92.50;;;;;;4975852;28;20456;-89
2021/10/21 02:35:58;;;;;;;1.37;0.73;;;15.80;92.40;;;;;;4987238;28;20451;-89
2021/10/21 02:38:28;;;;;;;4.00;1.00;;;15.80;92.70;;;;;;4987070;28;20448;-89
2021/10/21 02:41:16;;;;;;;3.40;0.97;;;16.00;92.20;;;;;;4987911;28;20443;-89
2021/10/21 02:44:06;;;;;;;1.43;0.70;;;16.10;91.70;;;;;;4954124;28;20486;-89
2021/10/21 02:46:32;;;;;;;1.98;0.73;;;16.00;91.60;;;;;;4971781;28;20495;-90
2021/10/21 02:49:04;;;;;;;3.33;1.07;;;15.80;91.90;;;;;;4981949;28;20197;-89
2021/10/21 02:51:34;;;;;;;1.70;0.70;;;16.00;91.80;;;;;;4978160;28;20460;-88
2021/10/21 02:54:10;;;;;;;2.80;1.10;;;16.00;92.00;;;;;;4973291;28;20502;-87
2021/10/21 02:56:40;;;;;;;3.70;0.70;;;16.00;92.10;;;;;;4991250;28;20456;-88
2021/10/21 02:59:10;;;;;;;1.13;0.63;;;15.80;92.40;;;;;;4974345;28;20212;-85
2021/10/21 03:01:42;;;;;;;0.60;0.55;;;15.70;92.90;;;;;;4969440;28;21223;-89
2021/10/21 03:04:13;;;;;;;1.50;0.60;;;15.70;93.20;;;;;;4986074;28;20231;-89
2021/10/21 03:06:43;;;;;;;1.40;0.60;;;15.60;93.40;;;;;;4984050;28;20409;-89
2021/10/21 03:09:19;;;;;;;2.13;0.67;;;15.70;93.30;;;;;;4987371;28;20486;-88
2021/10/21 03:11:48;;;;;;;4.07;0.77;;;15.70;93.30;;;;;;4990134;28;20523;-87
2021/10/21 03:18:20;;;;;;;3.00;0.70;;;15.70;93.50;;;;;;4956698;28;20456;-85
2021/10/21 03:20:49;;;;;;;2.90;0.80;;;15.50;94.00;;;;;;4971883;28;20224;-86
2021/10/21 03:23:26;;;;;;;2.83;0.77;;;15.50;94.30;;;;;;4972374;28;20456;-88
2021/10/21 03:25:56;;;;;;;2.90;0.70;;;15.70;93.80;;;;;;4971594;28;20531;-87
2021/10/21 03:29:13;;;;;;;2.45;0.80;;;15.50;93.70;;;;;;4621449;28;10000016;-87
2021/10/21 03:32:00;;;;;;;5.53;0.83;;;15.70;93.60;;;;;;4913980;29;21154;-89
2021/10/21 03:34:27;;;;;;;2.73;0.63;;;15.60;93.50;;;;;;4911758;29;20585;-85
2021/10/21 03:36:54;;;;;;;1.53;0.50;;;15.70;93.60;;;;;;4922767;29;20457;-87
2021/10/21 03:39:22;;;;;;;1.53;0.60;;;15.60;93.70;;;;;;4911920;29;20548;-86
2021/10/21 03:41:49;;;;;;;4.27;0.83;;;15.70;93.60;;;;;;4920571;29;20649;-85
2021/10/21 03:44:21;;;;;;;3.47;0.80;;;15.70;93.70;;;;;;4926669;29;20470;-85
2021/10/21 03:50:10;;;;;;;2.83;0.60;;;15.60;94.40;;;;;;4927177;29;20440;-86
2021/10/21 03:53:26;;;;;;;;;;;;;;;;;;;;;
2021/10/21 03:56:27;;;;;;;1.17;0.63;;;15.50;94.90;;;;;;4898648;29;20685;-84
2021/10/21 03:59:43;;;;;;;4.87;0.80;;;15.40;95.40;;;;;;4959786;28;20459;-84
2021/10/21 04:02:29;;;;;;;1.77;0.60;;;15.40;95.60;;;;;;4930975;28;20443;-87
2021/10/21 04:05:02;;;;;;;2.87;0.50;;;15.30;95.90;;;;;;4965086;28;20491;-87
2021/10/21 04:07:35;;;;;;;3.60;0.83;;;15.30;96.20;;;;;;4966276;28;20479;-85
2021/10/21 04:10:05;;;;;;;1.98;0.50;;;15.20;96.40;;;;;;4965744;28;20466;-86
2021/10/21 04:12:33;;;;;;;1.80;1.03;;;15.10;96.70;;;;;;4966126;28;20209;-87
2021/10/21 04:15:00;;;;;;;0.83;0.57;;;15.10;96.70;;;;;;4968498;28;21747;-87
2021/10/21 04:20:55;;;;;;;1.58;0.65;;;15.10;96.70;;;;;;4959864;28;20216;-87
2021/10/21 04:28:44;;;;;;;0.80;0.60;;;15.00;97.00;;;;;;4999322;28;21273;-90
2021/10/21 04:34:08;;;;;;;1.47;0.63;;;15.20;96.50;;;;;;4998426;28;20450;-89
2021/10/21 04:36:50;;;;;;;1.90;0.50;;;15.10;96.50;;;;;;4983601;28;20504;-91
2021/10/21 04:43:25;;;;;;;2.77;0.80;;;15.20;96.40;;;;;;4947855;28;20444;-89
2021/10/21 04:46:07;;;;;;;2.93;0.60;;;15.10;96.40;;;;;;4981034;28;20454;-91
2021/10/21 04:48:34;;;;;;;0.73;0.60;;;15.00;96.90;;;;;;4988106;28;20663;-88
2021/10/21 04:51:32;;;;;;;1.00;0.40;;;15.00;97.00;;;;;;4954285;28;20452;-89
2021/10/21 04:55:14;;;;;;;3.27;0.67;;;15.10;96.80;;;;;;4960825;28;20345;-88
2021/10/21 04:57:48;;;;;;;2.40;0.70;;;15.10;96.60;;;;;;4953987;28;20457;-88
2021/10/21 05:00:20;;;;;;;1.83;0.50;;;14.90;97.10;;;;;;4973707;28;20525;-87
2021/10/21 05:10:26;;;;;;;3.60;0.47;;;15.10;96.80;;;;;;4967158;28;20475;-88
2021/10/21 05:12:53;;;;;;;3.97;0.50;;;15.00;96.70;;;;;;4983651;28;20448;-87
2021/10/21 05:15:26;;;;;;;1.65;0.40;;;15.00;96.70;;;;;;4974016;28;21041;-86
2021/10/21 05:21:29;;;;;;;0.88;0.32;;;14.80;97.50;;;;;;4930605;29;20437;-87
2021/10/21 05:25:01;;;;;;;1.40;0.40;;;15.00;97.20;;;;;;4962374;28;20234;-87
2021/10/21 05:39:08;;;;;;;0.40;0.37;;;14.90;96.80;;;;;;4969029;28;21264;-88
2021/10/21 05:41:38;;;;;;;4.47;0.70;;;14.70;97.00;;;;;;4962565;28;20481;-88
2021/10/21 05:53:01;;;;;;;1.13;0.50;;;14.50;97.30;;;;;;4928765;29;20447;-87
2021/10/21 05:55:33;;;;;;;0.50;0.40;;;14.40;99.10;;;;;;4937832;29;20474;-87
2021/10/21 06:02:07;;;;;;;4.33;2.10;;;14.10;99.90;;;;;;4879783;29;20459;-86
2021/10/21 06:04:42;;;;;;;2.58;0.77;;;13.90;99.90;;;;;;4881622;29;20541;-85
2021/10/21 06:07:25;;;;;;;1.60;0.50;;;13.80;99.90;;;;;;4947434;28;20234;-87
2021/10/21 06:09:57;;;;;;;4.00;0.80;;;13.70;99.90;;;;;;4951113;29;20464;-89
2021/10/21 06:16:47;;;;;;;2.73;1.33;;;13.50;99.90;;;;;;4933264;29;20450;-86
2021/10/21 06:19:20;;;;;;;1.00;0.70;;;13.40;99.90;;;;;;4949987;29;20938;-85
2021/10/21 06:22:07;;;;;;;1.80;0.77;;;13.40;99.90;;;;;;4949984;28;20560;-87
2021/10/21 06:24:34;;;;;;;4.10;0.60;;;13.30;99.90;;;;;;4939151;29;21006;-86
2021/10/21 06:27:04;;;;;;;2.07;0.53;;;13.30;99.90;;;;;;4935082;29;20835;-85
2021/10/21 06:29:36;;;;;;;0.90;0.60;;;13.20;99.90;;;;;;4952175;28;20478;-89
2021/10/21 06:32:10;;;;;;;2.40;0.80;;;13.10;99.90;;;;;;4952067;28;20461;-87
2021/10/21 06:35:21;;;;;;;3.60;1.20;;;13.00;99.90;;;;;;4931866;29;20986;-87
2021/10/21 06:38:45;;;;;;;3.03;1.10;;;12.90;99.90;;;;;;4933116;28;20465;-88
2021/10/21 06:41:27;;;;;;;5.33;1.70;;;12.80;99.90;;;;;;4880362;29;20575;-88
2021/10/21 06:44:53;;;;;;;;;;;;;;;;;;;;;
2021/10/21 06:48:33;;;;;;;4.97;1.40;;;12.90;99.90;;;;;;4938526;29;20220;-89
2021/10/21 06:51:19;;;;;;;4.93;1.70;;;12.80;99.90;;;;;;4894256;29;20445;-87
2021/10/21 07:04:25;;;;;;;5.00;1.30;;;12.70;99.90;;;;;;4971910;28;20636;-88
2021/10/21 07:07:12;;;;;;;2.33;1.20;;;12.70;99.90;;;;;;4954285;28;20448;-88
2021/10/21 07:09:42;;;;;;;3.97;1.20;;;12.60;99.90;;;;;;4966580;28;20452;-86
2021/10/21 07:12:19;;;;;;;3.23;1.17;;;12.70;99.90;;;;;;4966964;28;20466;-88
2021/10/21 07:22:51;;;;;;;2.60;1.23;;;12.50;99.90;;;;;;4872554;29;20531;-87
2021/10/21 07:26:13;;;;;;;;;;;;;;;;;;;;;
2021/10/21 07:52:24;;;;;;;2.43;1.10;;;12.20;99.90;;;;;;4969441;28;20493;-87
2021/10/21 07:54:54;;;;;;;4.20;1.60;;;12.20;99.90;;;;;;4977527;28;20538;-87
2021/10/21 08:10:50;;;;;;;2.10;1.30;;;12.40;99.90;;;;;;4991327;28;20462;-88
2021/10/21 08:16:51;;;;;;;;;;;;;;;;;;;;;
2021/10/21 08:19:51;;;;;;;5.80;1.63;;;12.50;99.90;;;;;;4982669;28;20336;-87
2021/10/21 08:23:09;;;;;;;7.45;3.65;;;12.70;99.90;;;;;;4960351;28;20462;-88
2021/10/21 08:25:53;;;;;;;3.33;1.63;;;12.70;99.90;;;;;;4996861;23;20257;-85
2021/10/21 08:28:27;;;;;;;3.70;1.73;;;12.90;99.90;;;;;;4964719;28;20488;-86
2021/10/21 08:30:57;;;;;;;4.20;1.53;;;13.00;99.90;;;;;;4993992;28;20436;-90
2021/10/21 08:33:27;;;;;;;3.67;1.57;;;13.00;99.90;;;;;;4970695;28;20575;-87
2021/10/21 08:36:28;;;;;;;7.70;1.77;;;13.10;99.90;;;;;;4965657;28;20543;-88
2021/10/21 08:39:17;;;;;;;7.30;2.27;;;13.20;99.90;;;;;;4953699;28;20464;-87
2021/10/21 08:41:46;;;;;;;5.07;1.93;;;13.30;99.90;;;;;;4952308;28;20464;-85
2021/10/21 08:44:19;;;;;;;4.53;1.50;;;13.40;99.90;;;;;;4965445;28;21035;-86
2021/10/21 08:51:09;;;;;;;5.10;2.63;;;13.60;99.70;;;;;;4894652;29;20446;-87
2021/10/21 08:56:52;;;;;;;;;;;;;;;;;;;;;
2021/10/21 08:59:33;;;;;;;5.00;1.90;;;13.40;98.80;;;;;;4935956;29;21457;-86
2021/10/21 09:02:09;;;;;;;4.30;2.40;;;13.30;98.30;;;;;;4931263;29;20461;-87
2021/10/21 09:04:51;;;;;;;4.30;2.23;;;13.30;97.90;;;;;;4922431;29;20554;-88
2021/10/21 09:10:14;;;;;;;3.13;1.93;;;13.40;98.00;;;;;;4924217;29;20455;-89
2021/10/21 09:16:53;;;;;;;5.80;1.92;;;13.60;97.60;;;;;;5224732;23;20498;-86
2021/10/21 09:19:41;;;;;;;6.53;1.80;;;13.60;97.10;;;;;;4867744;29;20246;-86
2021/10/21 09:22:25;;;;;;;5.43;1.60;;;13.60;96.60;;;;;;4877757;29;20440;-86
2021/10/21 09:25:20;;;;;;;5.87;2.20;;;13.80;96.30;;;;;;4893037;29;20597;-87
2021/10/21 09:27:49;;;;;;;2.87;1.60;;;14.00;95.40;;;;;;4884029;29;20487;-87
2021/10/21 09:31:15;;;;;;;4.43;2.17;;;14.10;94.70;;;;;;4889752;29;20468;-88
2021/10/21 09:34:50;;;;;;;3.03;1.60;;;14.30;94.60;;;;;;4807183;29;20600;-87
2021/10/21 09:37:47;;;;;;;3.47;1.50;;;14.30;93.70;;;;;;4804780;29;20467;-87
2021/10/21 09:40:37;;;;;;;2.30;1.40;;;14.40;93.80;;;;;;4795130;29;20474;-89
2021/10/21 09:43:06;;;;;;;3.57;1.67;;;14.50;93.40;;;;;;4806055;29;20523;-89
2021/10/21 09:45:44;;;;;;;3.63;1.50;;;14.40;93.30;;;;;;4804084;29;20483;-87
2021/10/21 09:48:59;;;;;;;6.03;1.60;;;14.30;93.10;;;;;;4819574;29;20495;-87
2021/10/21 09:51:45;;;;;;;6.37;1.50;;;14.30;92.80;;;;;;4787171;29;20835;-89
2021/10/21 09:54:30;;;;;;;3.05;1.20;;;14.20;92.90;;;;;;4809422;29;20497;-87
2021/10/21 09:57:04;;;;;;;5.67;1.30;;;14.10;92.70;;;;;;4865192;29;20694;-89
2021/10/21 10:00:03;;;;;;;2.70;1.00;;;14.10;92.80;;;;;;4917401;29;20466;-88
2021/10/21 10:02:35;;;;;;;4.57;1.70;;;14.10;93.30;;;;;;4889511;29;20463;-88
2021/10/21 10:05:04;;;;;;;7.10;1.63;;;14.10;93.30;;;;;;4973241;23;20986;-85
2021/10/21 10:07:35;;;;;;;5.50;1.70;;;14.00;93.60;;;;;;4969165;28;20460;-87
2021/10/21 10:10:06;;;;;;;8.60;1.77;;;14.00;93.90;;;;;;4983824;28;20753;-88
2021/10/21 10:17:23;;;;;;;;;;;;;;;;;;;;;
2021/10/21 10:20:11;;;;;;;3.57;1.40;;;14.00;94.30;;;;;;4856334;29;20486;-88
2021/10/21 10:27:16;;;;;;;4.53;1.60;;;13.90;95.40;;;;;;4902232;29;20506;-87
2021/10/21 10:30:38;;;;;;;5.23;1.63;;;14.00;95.90;;;;;;4872892;29;20541;-85
2021/10/21 10:37:23;;;;;;;4.40;1.30;;;14.20;96.50;;;;;;4837229;29;20461;-88
2021/10/21 10:40:08;;;;;;;5.60;1.73;;;14.10;95.70;;;;;;4757810;29;20464;-88
2021/10/21 10:43:10;;;;;;;5.23;2.00;;;14.20;95.40;;;;;;4803635;29;21016;-87
2021/10/21 10:47:15;;;;;;;6.33;2.50;;;14.10;95.80;;;;;;4831598;29;20461;-89
2021/10/21 10:54:15;;;;;;;1.80;1.40;;;14.10;95.50;;;;;;4903531;29;20470;-87
2021/10/21 10:57:48;;;;;;;5.60;1.53;;;14.10;96.00;;;;;;4861381;29;20936;-88
2021/10/21 11:01:04;;;;;;;7.50;2.00;;;14.20;95.40;;;;;;4864090;29;21134;-88
2021/10/21 11:03:51;;;;;;;5.30;2.37;;;14.20;94.90;;;;;;4890279;29;20464;-88
2021/10/21 11:06:36;;;;;;;4.60;1.80;;;14.30;94.70;;;;;;4878713;29;20456;-88
2021/10/21 11:10:08;;;;;;;5.17;1.40;;;14.40;94.10;;;;;;4876983;29;20513;-87
2021/10/21 11:17:02;;;;;;;5.87;1.50;;;14.80;93.40;;;;;;4797173;29;20932;-89
2021/10/21 11:19:46;;;;;;;5.80;2.20;;;14.90;93.10;;;;;;4815763;29;20474;-89
2021/10/21 11:23:13;;;;;;;;;;;;;;;;;;;;;
2021/10/21 11:38:10;;;;;;;4.73;1.40;;;15.10;91.40;;;;;;4811928;29;20435;-88
2021/10/21 12:09:57;;;;;;;4.40;1.27;;;15.10;92.80;;;;;;4866292;29;20576;-89
2021/10/21 12:20:38;;;;;;;3.20;1.43;;;14.50;96.50;;;;;;4874923;29;20553;-86
2021/10/21 12:23:32;;;;;;;4.03;1.43;;;14.30;97.00;;;;;;4826366;29;20432;-85
2021/10/21 12:26:38;;;;;;;3.10;1.33;;;14.30;97.70;;;;;;4840407;29;20604;-86
2021/10/21 12:30:07;;;;;;;2.20;1.30;;;14.20;98.80;;;;;;4843863;29;20583;-84
2021/10/21 12:33:57;;;;;;;6.27;1.80;;;14.10;99.80;;;;;;4832824;29;20434;-87
2021/10/21 12:52:36;;;;;;;0.83;0.70;;;12.80;99.90;;;;;;5072772;27;1200979;-87
2021/10/21 12:55:50;;;;;;;2.80;1.00;;;12.50;99.90;;;;;;5092681;28;20530;-88
2021/10/21 12:58:25;;;;;;;2.70;1.50;;;12.40;99.90;;;;;;5077597;28;20477;-88
2021/10/21 13:01:24;;;;;;;;;;;;;;;;;;;;;
2021/10/21 13:08:33;;;;;;;3.90;1.57;;;12.30;99.90;;;;;;5058745;28;20478;-88
2021/10/21 13:11:19;;;;;;;3.20;1.13;;;12.30;99.90;;;;;;5046385;28;20501;-88
2021/10/21 13:14:00;;;;;;;4.60;2.07;;;12.30;99.90;;;;;;5069205;28;20469;-88
2021/10/21 13:17:19;;;;;;;1.27;0.90;;;12.40;99.90;;;;;;4983593;28;20447;-88
2021/10/21 13:24:27;;;;;;;4.13;1.40;;;12.40;99.90;;;;;;5018216;22;20612;-89
2021/10/21 13:27:44;;;;;;;1.80;1.47;;;12.40;99.90;;;;;;5057523;28;20495;-87
2021/10/21 13:31:41;;;;;;;2.43;1.37;;;12.40;99.90;;;;;;4961355;28;20493;-87
2021/10/21 13:35:10;;;;;;;;;;;;;;;;;;;;;
2021/10/21 13:38:47;;;;;;;1.67;0.87;;;12.40;99.90;;;;;;4939336;29;20446;-87
2021/10/21 13:41:33;;;;;;;1.30;0.90;;;12.40;99.90;;;;;;4902921;29;20531;-88
2021/10/21 13:44:06;;;;;;;2.23;1.07;;;12.50;99.90;;;;;;4925854;29;20491;-88
2021/10/21 13:46:52;;;;;;;4.67;1.10;;;12.50;99.90;;;;;;4974411;28;20446;-88
2021/10/21 13:49:22;;;;;;;1.50;1.40;;;12.50;99.90;;;;;;5001198;28;20459;-86
2021/10/21 13:51:59;;;;;;;1.27;0.73;;;12.50;99.90;;;;;;4984339;28;20486;-89
2021/10/21 13:54:38;;;;;;;1.63;1.00;;;12.50;99.90;;;;;;4984390;28;21777;-87
2021/10/21 13:57:15;;;;;;;0.90;0.90;;;12.50;99.90;;;;;;4984526;28;20520;-89
2021/10/21 13:59:44;;;;;;;3.10;1.40;;;12.50;99.90;;;;;;4998676;28;20461;-87
2021/10/21 14:02:13;;;;;;;2.27;1.10;;;12.50;99.90;;;;;;4981291;28;20454;-87
2021/10/21 14:08:01;;;;;;;2.50;1.00;;;12.50;99.90;;;;;;4984517;28;20431;-86
2021/10/21 14:10:45;;;;;;;3.07;1.83;;;12.50;99.90;;;;;;4970075;28;21075;-86
2021/10/21 14:24:19;;;;;;;5.73;4.73;;;12.60;99.90;;;;;;4952040;28;20509;-86
2021/10/21 14:26:46;;;;;;;2.30;1.50;;;12.60;99.90;;;;;;4952973;28;21067;-87
2021/10/21 14:29:13;;;;;;;2.20;1.17;;;12.60;99.90;;;;;;4952696;28;20472;-87
2021/10/21 14:31:41;;;;;;;4.43;2.37;;;12.60;99.90;;;;;;4956107;28;20489;-86
2021/10/21 14:34:46;;;;;;;4.60;1.70;;;12.60;99.90;;;;;;4941128;28;20458;-89
2021/10/21 14:37:16;;;;;;;2.53;1.57;;;12.60;99.90;;;;;;4972454;28;20523;-90
2021/10/21 14:39:48;;;;;;;3.97;1.50;;;12.60;99.90;;;;;;4976754;28;20469;-89
2021/10/21 14:42:24;;;;;;;2.00;1.80;;;12.60;99.90;;;;;;4973863;28;20534;-88
2021/10/21 14:45:21;;;;;;;1.33;1.07;;;12.60;99.90;;;;;;4956888;28;20540;-90
2021/10/21 14:48:28;;;;;;;3.73;1.97;;;12.60;99.90;;;;;;4965409;28;20455;-87
2021/10/21 14:51:27;;;;;;;2.80;1.53;;;12.50;99.90;;;;;;4958751;28;21017;-89
2021/10/21 14:54:33;;;;;;;3.53;1.40;;;12.60;99.90;;;;;;4895439;29;20490;-88
2021/10/21 14:57:25;;;;;;;3.23;1.37;;;12.50;99.90;;;;;;4896711;29;20483;-88
2021/10/21 14:59:58;;;;;;;5.57;1.90;;;12.50;99.90;;;;;;4908948;29;20526;-89
2021/10/21 15:02:48;;;;;;;4.37;1.30;;;12.50;99.90;;;;;;4904372;28;20470;-88
2021/10/21 15:05:19;;;;;;;4.77;1.73;;;12.50;99.90;;;;;;4959831;28;20483;-89
2021/10/21 15:08:16;;;;;;;6.50;2.33;;;12.40;99.90;;;;;;4956701;28;20710;-90
2021/10/21 15:25:44;;;;;;;1.87;1.67;;;12.20;99.90;;;;;;4957577;28;20579;-87
2021/10/21 15:28:31;;;;;;;3.30;1.60;;;12.20;99.90;;;;;;4894808;29;20472;-88
2021/10/21 15:31:01;;;;;;;3.93;2.17;;;12.20;99.90;;;;;;4882884;29;20685;-87
2021/10/21 15:33:32;;;;;;;2.63;2.43;;;12.20;99.90;;;;;;4896196;29;20563;-88
2021/10/21 15:36:05;;;;;;;2.00;1.23;;;12.30;99.90;;;;;;4893111;29;20482;-88
2021/10/21 15:38:39;;;;;;;2.40;1.53;;;12.30;99.90;;;;;;4916021;29;20461;-89
2021/10/21 15:41:11;;;;;;;2.90;1.90;;;12.20;99.90;;;;;;4918213;29;20912;-89
2021/10/21 15:47:33;;;;;;;2.00;1.30;;;12.10;99.90;;;;;;4915309;29;21237;-87
2021/10/21 16:14:00;;;;;;;2.30;1.30;;;11.80;99.90;;;;;;4957505;28;20444;-88
2021/10/21 16:17:15;;;;;;;2.30;1.43;;;11.80;99.90;;;;;;4958925;28;20476;-87
2021/10/21 16:26:33;;;;;;;1.73;1.13;;;11.80;99.90;;;;;;4956796;28;20551;-90
2021/10/21 16:29:34;;;;;;;2.60;1.17;;;11.80;99.90;;;;;;4955763;28;20463;-87
2021/10/21 16:32:21;;;;;;;4.53;3.50;;;11.80;99.90;;;;;;4951077;28;21074;-88
2021/10/21 16:39:11;;;;;;;2.57;1.20;;;11.80;99.90;;;;;;4956133;28;20435;-89
2021/10/21 16:41:40;;;;;;;4.70;1.80;;;11.80;99.90;;;;;;4955304;28;20500;-88
2021/10/21 16:44:25;;;;;;;4.93;2.80;;;11.70;99.90;;;;;;4954125;28;20973;-88
2021/10/21 16:51:21;;;;;;;6.43;3.07;;;11.70;99.90;;;;;;4937890;28;20523;-87
2021/10/21 16:54:50;;;;;;;5.03;3.10;;;11.70;99.90;;;;;;4929520;28;20485;-89
2021/10/21 16:58:18;;;;;;;6.83;3.63;;;11.70;99.90;;;;;;4956177;28;20476;-87
2021/10/21 17:01:25;;;;;;;4.90;4.20;;;11.60;99.90;;;;;;4954282;28;21034;-88
2021/10/21 17:04:04;;;;;;;2.17;1.67;;;11.60;99.90;;;;;;4953398;28;20556;-89
2021/10/21 17:06:40;;;;;;;3.53;1.63;;;11.60;99.90;;;;;;4934659;28;20952;-86
2021/10/21 17:09:12;;;;;;;3.53;1.80;;;11.70;99.90;;;;;;4938800;28;21042;-88
2021/10/21 17:11:39;;;;;;;3.93;1.83;;;11.60;99.90;;;;;;4939982;28;20592;-86
2021/10/21 17:14:05;;;;;;;3.53;1.50;;;11.60;99.90;;;;;;4932477;28;20484;-85
2021/10/21 17:16:42;;;;;;;4.40;1.43;;;11.50;99.90;;;;;;4934072;28;20576;-85
2021/10/21 17:48:01;;;;;;;9.13;1.80;;;11.50;99.90;;;;;;5009668;28;21976;-88
2021/10/21 17:50:28;;;;;;;2.67;1.80;;;11.50;99.90;;;;;;5011177;28;20475;-88
2021/10/21 17:52:55;;;;;;;4.27;2.33;;;11.50;99.90;;;;;;5004628;28;20481;-86
2021/10/21 17:55:22;;;;;;;5.80;2.50;;;11.50;99.90;;;;;;5007886;28;20486;-89
2021/10/21 17:57:49;;;;;;;10.03;2.70;;;11.50;99.90;;;;;;5006596;28;20465;-88
2021/10/21 18:00:16;;;;;;;4.70;3.07;;;11.40;99.90;;;;;;5010249;28;20458;-87
2021/10/21 18:02:45;;;;;;;5.67;3.10;;;11.40;99.90;;;;;;5015383;28;20455;-87
2021/10/21 18:05:28;;;;;;;5.67;3.50;;;11.40;99.90;;;;;;5016342;28;20481;-87
2021/10/21 18:08:18;;;;;;;5.23;3.20;;;11.40;99.90;;;;;;5011795;28;20563;-87
2021/10/21 18:10:45;;;;;;;14.10;8.13;;;11.30;99.90;;;;;;5007139;28;20447;-86
2021/10/21 18:13:11;;;;;;;10.10;6.27;;;11.30;99.90;;;;;;5004734;28;20477;-87
2021/10/21 18:15:41;;;;;;;6.93;3.97;;;11.30;99.90;;;;;;5005820;28;20856;-86
2021/10/21 18:23:03;;;;;;;9.37;6.17;;;11.20;99.90;;;;;;5012673;28;21045;-86
2021/10/21 18:25:44;;;;;;;10.10;4.07;;;11.20;99.90;;;;;;5003383;28;20473;-87
2021/10/21 18:28:12;;;;;;;7.83;3.70;;;11.10;99.90;;;;;;5006674;28;20556;-87
2021/10/21 18:30:41;;;;;;;6.27;4.17;;;11.10;99.90;;;;;;5026125;28;20470;-87
2021/10/21 18:33:09;;;;;;;13.10;3.40;;;11.00;99.90;;;;;;5005318;28;20478;-87
2021/10/21 18:35:38;;;;;;;6.20;3.03;;;11.00;99.90;;;;;;5005610;28;20478;-87
2021/10/21 18:38:25;;;;;;;7.93;3.40;;;10.90;99.90;;;;;;5024248;28;20459;-86
2021/10/21 18:40:59;;;;;;;13.03;3.50;;;10.90;99.90;;;;;;5008307;28;21726;-86
2021/10/21 18:43:39;;;;;;;8.20;4.13;;;10.90;99.90;;;;;;5023957;28;20481;-87
2021/10/21 18:46:07;;;;;;;6.80;3.20;;;10.90;99.90;;;;;;5028033;28;20513;-86
2021/10/21 18:48:36;;;;;;;4.73;2.50;;;10.90;99.90;;;;;;5043862;22;20586;-86
2021/10/21 18:51:03;;;;;;;6.03;2.57;;;10.80;99.90;;;;;;5087944;22;20489;-86
2021/10/21 19:10:04;;;;;;;15.10;3.87;;;10.70;99.90;;;;;;4972939;28;20475;-87
2021/10/21 19:13:14;;;;;;;4.30;2.70;;;10.70;99.90;;;;;;4976946;28;20996;-87
2021/10/21 19:32:00;;;;;;;276.43;188.10;;;10.60;99.90;;;;;;1235957;22;23245;-87
2021/10/21 19:34:26;;;;;;;11.50;3.00;;;10.60;99.90;;;;;;5000332;28;20548;-89
2021/10/21 19:36:59;;;;;;;7.87;3.23;;;10.50;99.90;;;;;;4996738;28;22290;-87
2021/10/21 19:40:03;;;;;;;10.30;2.97;;;10.50;99.90;;;;;;5012827;28;20455;-88
2021/10/21 19:42:36;;;;;;;17.27;3.60;;;10.50;99.90;;;;;;5008804;28;20463;-88
2021/10/21 19:45:20;;;;;;;9.23;3.50;;;10.50;99.90;;;;;;4998465;28;20525;-87
2021/10/21 19:52:07;;;;;;;8.17;3.37;;;10.40;99.90;;;;;;5002424;28;20473;-89
2021/10/21 19:57:43;;;;;;;7.30;2.90;;;10.40;99.90;;;;;;4998197;28;20475;-88
2021/10/21 20:01:13;;;;;;;11.47;4.00;;;10.40;99.90;;;;;;4989611;28;20475;-89
2021/10/21 20:04:06;;;;;;;7.73;3.30;;;10.30;99.90;;;;;;4940809;28;20455;-87
2021/10/21 20:07:01;;;;;;;10.00;3.03;;;10.40;99.90;;;;;;4882932;28;20498;-88
2021/10/21 20:09:46;;;;;;;6.43;3.07;;;10.40;99.90;;;;;;4959933;28;20596;-86
2021/10/21 20:12:57;;;;;;;10.20;3.50;;;10.40;99.90;;;;;;5001924;28;20562;-88
2021/10/21 20:15:56;;;;;;;8.83;4.67;;;10.40;99.90;;;;;;4998157;28;20477;-87
2021/10/21 20:19:06;;;;;;;5.80;3.20;;;10.40;99.90;;;;;;4999665;28;20434;-88
2021/10/21 20:21:57;;;;;;;8.97;3.80;;;10.30;99.90;;;;;;5000330;28;20819;-88
2021/10/21 20:24:56;;;;;;;8.37;3.50;;;10.40;99.90;;;;;;4993579;28;20571;-90
2021/10/21 20:27:23;;;;;;;11.67;4.23;;;10.30;99.90;;;;;;5017078;28;20454;-89
2021/10/21 20:29:50;;;;;;;6.90;3.07;;;10.40;99.90;;;;;;5017352;28;20605;-89
2021/10/21 20:33:12;;;;;;;9.13;4.03;;;10.30;99.90;;;;;;5022062;28;20541;-89
2021/10/21 20:35:45;;;;;;;6.47;3.10;;;10.30;99.90;;;;;;5007457;28;20535;-89
2021/10/21 20:38:12;;;;;;;11.30;3.60;;;10.30;99.90;;;;;;5001914;28;20440;-89
2021/10/21 20:40:43;;;;;;;12.67;5.23;;;10.30;99.90;;;;;;5001498;28;20463;-89
2021/10/21 20:43:47;;;;;;;10.27;3.57;;;10.30;99.90;;;;;;5007760;28;20475;-89
2021/10/21 20:46:38;;;;;;;8.57;3.33;;;10.20;99.90;;;;;;5001290;28;20492;-90
2021/10/21 20:49:08;;;;;;;5.83;2.87;;;10.30;99.90;;;;;;5003325;28;20492;-87